Time;durP1;ratioP1;P1;durP2;ratioP2;P2;SDS_P1;SDS_P2;PMS_P1;PMS_P2;Temp;Humidity;BMP_temperature;BMP_pressure;BME280_temperature;BME280_humidity;BME280_pressure;Samples;Min_cycle;Max_cycle;Signal;HPM_P1;HPM_P2
2021/08/09 00:02:23;;;;;;;0.50;0.40;;;;;;;17.95;79.45;100311.00;2751593;85;21580;-61
2021/08/09 00:06:26;;;;;;;1.62;0.53;;;;;;;17.89;79.70;100308.19;2793968;85;20993;-61
2021/08/09 00:10:29;;;;;;;1.47;0.90;;;;;;;17.84;80.13;100314.91;2743814;86;21157;-61
2021/08/09 00:14:32;;;;;;;0.98;0.75;;;;;;;17.79;80.46;100305.17;2764853;86;21029;-61
2021/08/09 00:18:35;;;;;;;0.40;0.35;;;;;;;17.72;80.86;100312.27;2771436;85;21076;-62
2021/08/09 00:22:37;;;;;;;0.90;0.55;;;;;;;17.66;81.16;100318.31;2771449;85;21044;-60
2021/08/09 00:26:41;;;;;;;0.90;0.60;;;;;;;17.62;81.57;100304.88;2771423;85;21059;-61
2021/08/09 00:30:44;;;;;;;2.47;0.78;;;;;;;17.62;81.91;100311.61;2771553;86;21020;-61
2021/08/09 00:34:46;;;;;;;1.37;0.47;;;;;;;17.63;82.03;100314.63;2771648;86;20997;-62
2021/08/09 00:38:50;;;;;;;0.60;0.30;;;;;;;17.66;82.06;100321.00;2771511;86;21107;-61
2021/08/09 00:42:55;;;;;;;1.10;0.55;;;;;;;17.66;82.00;100318.31;2771533;85;21067;-61
2021/08/09 00:46:56;;;;;;;1.02;0.90;;;;;;;17.69;81.92;100326.89;2771939;86;21008;-61
2021/08/09 00:50:58;;;;;;;3.02;1.25;;;;;;;17.69;81.69;100322.03;2771815;85;21036;-61
2021/08/09 00:55:00;;;;;;;1.12;0.57;;;;;;;17.68;81.68;100326.55;2771540;85;21036;-61
2021/08/09 00:59:04;;;;;;;0.62;0.62;;;;;;;17.68;81.58;100331.08;2770954;85;21570;-59
2021/08/09 01:03:08;;;;;;;0.50;0.50;;;;;;;17.64;81.46;100336.48;2767055;84;21043;-60
2021/08/09 01:07:11;;;;;;;1.22;0.62;;;;;;;17.59;81.49;100336.16;2807023;84;21294;-60
2021/08/09 01:11:42;;;;;;;0.85;0.72;;;;;;;17.52;81.58;100336.00;2759261;85;21759;-62
2021/08/09 01:15:47;;;;;;;0.70;0.70;;;;;;;17.43;81.45;100339.20;2756025;85;21032;-61
2021/08/09 01:20:17;;;;;;;1.23;1.10;;;;;;;17.31;81.62;100347.29;2827963;84;21001;-60
2021/08/09 01:24:36;;;;;;;1.05;0.70;;;;;;;17.09;81.88;100342.89;2827050;84;21096;-60
2021/08/09 01:28:39;;;;;;;1.72;1.05;;;;;;;16.89;82.51;100347.20;2827468;82;21578;-60
2021/08/09 01:32:44;;;;;;;1.75;0.95;;;;;;;16.77;82.71;100344.52;2827316;84;21081;-60
2021/08/09 01:36:51;;;;;;;1.82;0.85;;;;;;;16.79;82.89;100354.08;2827246;83;20982;-62
2021/08/09 01:40:57;;;;;;;3.05;0.60;;;;;;;16.82;82.97;100363.66;2826944;84;21108;-61
2021/08/09 01:45:00;;;;;;;2.17;1.10;;;;;;;16.84;83.12;100364.34;2827191;84;21061;-61
2021/08/09 01:49:04;;;;;;;1.00;0.50;;;;;;;16.86;83.03;100367.69;2827237;84;21033;-60
2021/08/09 01:53:10;;;;;;;0.98;0.70;;;;;;;16.89;82.71;100364.67;2826952;83;21586;-62
2021/08/09 01:57:12;;;;;;;1.40;0.93;;;;;;;16.91;82.45;100369.89;2826631;83;21053;-61
2021/08/09 02:01:15;;;;;;;1.37;0.82;;;;;;;16.90;82.33;100369.56;2826973;84;21871;-59
2021/08/09 02:05:20;;;;;;;3.12;1.32;;;;;;;16.89;82.12;100377.28;2827265;83;21586;-59
2021/08/09 02:09:22;;;;;;;0.90;0.70;;;;;;;16.88;81.84;100379.63;2807117;84;21543;-59
2021/08/09 02:13:46;;;;;;;2.67;1.05;;;;;;;16.83;81.75;100382.31;2826452;84;21080;-61
2021/08/09 02:17:55;;;;;;;0.80;0.78;;;;;;;16.85;81.27;100394.22;2828772;83;21563;-60
2021/08/09 02:22:11;;;;;;;1.00;0.88;;;;;;;16.79;80.97;100396.23;2829992;83;21729;-61
2021/08/09 02:26:19;;;;;;;1.47;0.68;;;;;;;16.76;80.91;100404.62;2830645;84;21367;-60
2021/08/09 02:30:24;;;;;;;0.70;0.68;;;;;;;16.72;80.47;100414.02;2829256;84;21079;-61
2021/08/09 02:34:32;;;;;;;0.62;0.62;;;;;;;16.64;80.09;100430.42;2830922;83;21028;-60
2021/08/09 02:38:36;;;;;;;5.67;1.15;;;;;;;16.57;80.40;100438.80;2810780;84;21076;-59
2021/08/09 02:42:39;;;;;;;2.02;0.60;;;;;;;16.53;80.60;100445.50;2830873;83;21028;-60
2021/08/09 02:46:42;;;;;;;0.70;0.70;;;;;;;16.42;80.28;100446.11;2829267;83;21059;-61
2021/08/09 02:50:47;;;;;;;4.03;1.52;;;;;;;16.32;80.48;100449.43;2853373;83;21591;-61
2021/08/09 02:54:49;;;;;;;0.80;0.80;;;;;;;16.26;80.86;100461.64;2853528;83;21020;-61
2021/08/09 02:58:53;;;;;;;1.25;0.53;;;;;;;16.19;81.08;100467.80;2853313;82;21004;-61
2021/08/09 03:02:57;;;;;;;1.45;0.82;;;;;;;16.08;81.29;100479.63;2853180;83;21570;-61
2021/08/09 03:07:08;;;;;;;1.52;0.68;;;;;;;16.04;81.84;100480.95;2853059;82;21035;-60
2021/08/09 03:11:09;;;;;;;2.47;0.98;;;;;;;16.03;82.37;100484.13;2852454;82;21055;-60
2021/08/09 03:15:13;;;;;;;1.35;0.70;;;;;;;16.06;82.49;100487.00;2851287;83;21043;-60
2021/08/09 03:19:15;;;;;;;3.87;1.52;;;;;;;16.10;82.33;100489.70;2844072;83;20996;-59
2021/08/09 03:23:17;;;;;;;2.08;0.88;;;;;;;16.14;81.72;100499.12;2844385;83;21056;-60
2021/08/09 03:27:19;;;;;;;12.15;1.27;;;;;;;16.13;80.93;100495.61;2844482;83;21075;-61
2021/08/09 03:31:22;;;;;;;1.80;0.98;;;;;;;16.03;80.80;100495.37;2844859;83;21048;-59
2021/08/09 03:35:25;;;;;;;1.42;0.82;;;;;;;15.93;81.15;100500.83;2844653;83;21510;-59
2021/08/09 03:39:28;;;;;;;2.02;1.02;;;;;;;15.91;81.42;100497.43;2844677;83;21065;-59
2021/08/09 03:43:30;;;;;;;0.70;0.70;;;;;;;15.92;80.86;100503.17;2844459;83;20976;-59
2021/08/09 03:47:31;;;;;;;0.60;0.50;;;;;;;15.89;80.88;100505.66;2844311;83;20996;-60
2021/08/09 03:51:35;;;;;;;1.00;0.60;;;;;;;15.87;80.42;100510.30;2844457;83;21545;-61
2021/08/09 03:55:39;;;;;;;1.10;0.88;;;;;;;15.84;80.25;100508.77;2844885;83;21011;-59
2021/08/09 03:59:41;;;;;;;3.40;1.10;;;;;;;15.85;80.16;100509.10;2826135;83;21051;-60
2021/08/09 04:03:43;;;;;;;2.80;0.60;;;;;;;15.90;80.14;100517.20;2820440;84;21558;-60
2021/08/09 04:07:45;;;;;;;4.65;1.25;;;;;;;15.98;80.38;100511.92;2820686;84;20988;-60
2021/08/09 04:11:48;;;;;;;1.30;1.00;;;;;;;16.00;79.94;100501.87;2820702;82;21067;-61
2021/08/09 04:15:50;;;;;;;1.60;0.68;;;;;;;16.06;79.58;100507.95;2828906;83;21019;-61
2021/08/09 04:19:53;;;;;;;1.02;1.02;;;;;;;16.28;81.55;100505.27;2850584;83;21043;-59
2021/08/09 04:23:55;;;;;;;1.17;0.53;;;;;;;17.18;79.47;100502.31;2851355;83;21023;-60
2021/08/09 04:27:59;;;;;;;1.00;0.85;;;;;;;18.01;77.24;100507.28;2851888;83;21054;-60
2021/08/09 04:32:04;;;;;;;1.25;0.75;;;;;;;18.88;75.69;100509.80;2852157;83;21042;-60
2021/08/09 04:36:09;;;;;;;;;;;;;;;19.83;72.42;100509.21;2854241;83;21019;-61
2021/08/09 04:40:14;;;;;;;1.35;0.72;;;;;;;20.76;70.81;100514.92;2853454;83;20414;-60
2021/08/09 04:44:18;;;;;;;1.40;0.53;;;;;;;21.72;68.42;100517.18;2854124;83;20975;-60
2021/08/09 04:48:21;;;;;;;1.32;0.62;;;;;;;22.76;66.87;100520.25;2854383;83;20996;-60
2021/08/09 04:52:22;;;;;;;0.90;0.47;;;;;;;23.50;61.04;100527.30;2854777;81;21022;-61
2021/08/09 04:56:24;;;;;;;1.05;0.88;;;;;;;23.84;59.07;100523.27;2854708;83;21066;-61
2021/08/09 05:00:27;;;;;;;0.82;0.70;;;;;;;23.94;57.35;100524.21;2855169;83;21067;-61
2021/08/09 05:04:35;;;;;;;1.47;0.70;;;;;;;24.17;56.67;100517.54;2855366;83;21019;-61
2021/08/09 05:08:41;;;;;;;0.55;0.45;;;;;;;24.34;55.98;100518.77;2855159;83;21004;-60
2021/08/09 05:12:45;;;;;;;1.00;0.40;;;;;;;24.36;54.81;100518.58;2855432;83;21035;-61
2021/08/09 05:16:47;;;;;;;1.70;0.82;;;;;;;24.23;54.61;100524.87;2857119;82;21544;-61
2021/08/09 05:20:50;;;;;;;0.68;0.65;;;;;;;23.90;54.85;100522.45;2859416;83;21043;-61
2021/08/09 05:24:53;;;;;;;0.57;0.57;;;;;;;23.84;55.81;100534.67;2859495;83;21042;-61
2021/08/09 05:28:55;;;;;;;0.62;0.60;;;;;;;23.83;55.03;100532.46;2859076;83;21659;-60
2021/08/09 05:33:01;;;;;;;1.95;0.50;;;;;;;24.05;55.12;100533.14;2859560;83;21496;-60
2021/08/09 05:37:04;;;;;;;0.60;0.40;;;;;;;24.23;55.27;100537.10;2858856;83;21492;-61
2021/08/09 05:41:09;;;;;;;2.98;0.70;;;;;;;24.46;53.86;100539.34;2859332;83;21027;-60
2021/08/09 05:45:11;;;;;;;1.70;0.60;;;;;;;24.47;54.37;100536.13;2859267;83;20987;-60
2021/08/09 05:49:15;;;;;;;0.90;0.53;;;;;;;24.45;52.85;100539.03;2858765;83;21051;-60
2021/08/09 05:53:17;;;;;;;2.25;1.02;;;;;;;24.49;53.10;100543.03;2859109;83;21023;-60
2021/08/09 05:57:21;;;;;;;4.30;0.98;;;;;;;24.44;52.42;100555.58;2859574;83;20995;-61
2021/08/09 06:01:23;;;;;;;1.05;0.65;;;;;;;24.43;52.68;100564.78;2859418;83;21003;-60
2021/08/09 06:05:27;;;;;;;0.80;0.75;;;;;;;24.41;51.81;100578.58;2859472;83;21038;-61
2021/08/09 06:09:32;;;;;;;3.15;0.70;;;;;;;24.41;52.41;100575.03;2859574;83;21111;-61
2021/08/09 06:13:35;;;;;;;5.03;1.07;;;;;;;24.53;52.21;100575.54;2813371;82;21094;-60
2021/08/09 06:17:40;;;;;;;2.15;0.45;;;;;;;24.61;52.45;100581.79;2854896;82;21087;-61
2021/08/09 06:21:42;;;;;;;1.22;0.70;;;;;;;24.67;52.21;100576.88;2830774;83;20999;-61
2021/08/09 06:25:43;;;;;;;2.62;1.20;;;;;;;24.62;51.31;100582.95;2851446;83;21007;-61
2021/08/09 06:29:52;;;;;;;2.55;1.00;;;;;;;24.62;52.31;100588.39;2851668;83;20964;-60
2021/08/09 06:33:55;;;;;;;4.95;1.15;;;;;;;24.41;52.50;100599.50;2774901;84;20995;-61
2021/08/09 06:38:05;;;;;;;1.90;1.22;;;;;;;24.56;53.47;100596.55;2778523;84;21015;-61
2021/08/09 06:42:08;;;;;;;2.90;0.28;;;;;;;24.45;52.27;100596.67;2761970;85;21018;-61
2021/08/09 06:46:12;;;;;;;2.50;0.75;;;;;;;24.44;52.33;100599.90;2749236;85;21495;-61
2021/08/09 06:50:17;;;;;;;7.70;1.10;;;;;;;24.51;52.95;100598.53;2818167;83;20979;-61
2021/08/09 06:54:24;;;;;;;1.10;0.53;;;;;;;24.66;52.68;100590.98;2764859;85;21023;-61
2021/08/09 06:58:28;;;;;;;1.32;0.85;;;;;;;24.65;51.41;100587.11;2790458;85;21517;-61
2021/08/09 07:02:30;;;;;;;3.87;1.10;;;;;;;24.38;52.55;100603.47;2784837;85;21106;-61
2021/08/09 07:06:34;;;;;;;4.60;0.70;;;;;;;24.25;52.27;100597.52;2721899;86;21003;-61
2021/08/09 07:10:36;;;;;;;2.77;0.93;;;;;;;24.32;52.76;100601.06;2791454;85;21102;-61
2021/08/09 07:14:39;;;;;;;3.12;0.60;;;;;;;24.54;52.76;100603.55;2765745;85;20960;-61
2021/08/09 07:18:48;;;;;;;1.82;0.75;;;;;;;24.77;52.63;100598.23;2807674;84;20999;-61
2021/08/09 07:22:50;;;;;;;2.22;0.75;;;;;;;24.89;52.00;100597.87;2817490;83;20999;-61
2021/08/09 07:26:55;;;;;;;1.47;0.82;;;;;;;24.73;51.29;100602.37;2808887;84;20971;-61
2021/08/09 07:31:00;;;;;;;3.15;1.17;;;;;;;24.64;51.58;100603.11;2824983;83;21026;-61
2021/08/09 07:35:03;;;;;;;1.90;1.17;;;;;;;24.63;51.91;100601.45;2771904;83;21026;-61
2021/08/09 07:39:07;;;;;;;1.67;1.00;;;;;;;24.41;51.22;100598.96;2822162;83;21054;-60
2021/08/09 07:43:11;;;;;;;3.50;1.00;;;;;;;24.17;52.61;100600.42;2826341;83;21310;-61
2021/08/09 07:47:20;;;;;;;2.77;0.88;;;;;;;24.24;52.45;100593.13;2805300;83;21006;-61
2021/08/09 07:51:22;;;;;;;1.90;0.88;;;;;;;24.25;51.80;100597.52;2786946;82;21031;-61
2021/08/09 07:55:25;;;;;;;1.77;0.85;;;;;;;24.10;51.80;100595.83;2799908;82;21014;-61
2021/08/09 07:59:41;;;;;;;1.70;0.88;;;;;;;23.87;52.85;100590.75;2832370;83;21067;-61
2021/08/09 08:03:42;;;;;;;1.75;0.72;;;;;;;24.07;53.33;100594.89;2812499;82;20999;-61
2021/08/09 08:07:52;;;;;;;3.50;1.55;;;;;;;24.09;51.56;100598.23;2798313;83;21039;-62
2021/08/09 08:11:54;;;;;;;3.15;1.02;;;;;;;24.29;52.89;100596.05;2819143;84;21036;-61
2021/08/09 08:15:55;;;;;;;1.02;0.70;;;;;;;24.51;51.99;100598.53;2883325;81;21022;-61
2021/08/09 08:19:57;;;;;;;18.27;3.98;;;;;;;24.54;51.86;100595.39;2824555;84;21027;-62
2021/08/09 08:23:59;;;;;;;5.22;2.70;;;;;;;24.50;51.83;100598.22;2871238;81;21005;-62
2021/08/09 08:28:21;;;;;;;1.80;1.02;;;;;;;24.65;51.76;100592.55;2830568;82;21005;-62
2021/08/09 08:32:22;;;;;;;2.12;0.72;;;;;;;24.88;51.32;100589.40;2869351;82;21084;-61
2021/08/09 08:36:27;;;;;;;1.85;0.95;;;;;;;24.95;50.59;100587.48;2845001;83;21024;-61
2021/08/09 08:40:28;;;;;;;6.67;1.50;;;;;;;25.08;50.34;100588.50;2847372;82;21005;-62
2021/08/09 08:44:30;;;;;;;1.45;1.00;;;;;;;25.51;50.54;100587.91;2877608;82;21045;-62
2021/08/09 08:48:38;;;;;;;2.27;0.88;;;;;;;25.46;49.27;100582.80;2894420;82;21009;-61
2021/08/09 08:52:42;;;;;;;2.95;0.78;;;;;;;25.11;48.25;100579.89;2868857;82;21077;-61
2021/08/09 08:56:45;;;;;;;4.42;1.20;;;;;;;24.63;49.45;100587.34;2873517;81;21025;-62
2021/08/09 09:00:49;;;;;;;1.77;0.80;;;;;;;24.55;50.96;100587.55;2870962;82;21005;-63
2021/08/09 09:04:50;;;;;;;1.12;0.88;;;;;;;24.52;50.06;100592.05;2859285;82;21041;-61
2021/08/09 09:08:53;;;;;;;2.20;0.78;;;;;;;24.56;51.08;100587.03;2872584;82;21033;-60
2021/08/09 09:13:18;;;;;;;1.17;0.88;;;;;;;24.76;50.34;100587.02;2871342;82;21033;-61
2021/08/09 09:17:32;;;;;;;2.23;0.90;;;;;;;24.75;49.79;100586.67;2891093;82;21838;-61
2021/08/09 09:21:37;;;;;;;3.10;1.25;;;;;;;24.78;49.87;100590.38;2876263;82;21029;-61
2021/08/09 09:25:39;;;;;;;;;;;;;;;24.99;49.61;100577.02;2873674;82;20982;-61
2021/08/09 09:29:54;;;;;;;4.15;0.95;;;;;;;25.17;49.14;100581.78;2836808;83;20117;-61
2021/08/09 09:33:57;;;;;;;1.75;0.82;;;;;;;25.27;51.16;100581.83;2835863;84;21041;-61
2021/08/09 09:38:01;;;;;;;3.10;1.10;;;;;;;25.47;49.15;100573.06;2838606;82;21036;-60
2021/08/09 09:42:10;;;;;;;3.17;1.00;;;;;;;25.56;49.32;100578.27;2862290;82;21010;-60
2021/08/09 09:46:28;;;;;;;2.70;1.17;;;;;;;25.69;49.35;100580.89;2838079;82;21037;-61
2021/08/09 09:50:32;;;;;;;22.00;1.37;;;;;;;25.80;49.13;100588.89;2867419;82;21040;-61
2021/08/09 09:54:34;;;;;;;4.20;0.78;;;;;;;25.71;47.58;100586.95;2865756;82;21048;-60
2021/08/09 09:58:43;;;;;;;1.65;0.90;;;;;;;25.75;48.75;100585.48;2836699;84;21029;-61
2021/08/09 10:02:49;;;;;;;1.55;0.57;;;;;;;25.75;47.12;100593.66;2836472;84;21093;-61
2021/08/09 10:06:53;;;;;;;4.58;1.25;;;;;;;25.90;48.27;100593.84;2836915;84;21053;-61
2021/08/09 10:11:00;;;;;;;1.52;0.45;;;;;;;25.89;46.92;100588.09;2840803;81;21047;-61
2021/08/09 10:15:06;;;;;;;2.33;0.90;;;;;;;25.85;46.50;100593.17;2852214;82;20971;-62
2021/08/09 10:19:22;;;;;;;3.00;0.90;;;;;;;25.87;49.29;100584.76;2878409;82;20972;-62
2021/08/09 10:23:48;;;;;;;;;;;;;;;26.03;48.36;100581.50;2836084;81;21041;-62
2021/08/09 10:27:52;;;;;;;1.40;1.05;;;;;;;26.08;49.86;100585.75;2824868;83;20122;-62
2021/08/09 10:32:16;;;;;;;0.68;0.37;;;;;;;26.13;48.35;100582.87;2847237;83;20990;-61
2021/08/09 10:36:23;;;;;;;5.85;1.07;;;;;;;26.17;46.08;100574.61;2868957;83;21499;-61
2021/08/09 10:40:25;;;;;;;1.47;0.62;;;;;;;26.15;46.84;100568.52;2857466;83;21029;-61
2021/08/09 10:44:27;;;;;;;1.67;0.85;;;;;;;26.17;47.04;100571.89;2855927;83;21042;-62
2021/08/09 10:48:46;;;;;;;1.60;0.70;;;;;;;26.28;48.00;100568.42;2856073;83;20970;-62
2021/08/09 10:52:48;;;;;;;1.57;0.85;;;;;;;26.31;46.33;100572.05;2868146;82;21276;-61
2021/08/09 10:56:51;;;;;;;1.25;0.68;;;;;;;26.34;47.72;100567.55;2845467;82;21006;-61
2021/08/09 11:00:55;;;;;;;1.52;0.50;;;;;;;26.27;46.85;100570.02;2850187;83;21013;-61
2021/08/09 11:05:20;;;;;;;1.80;0.60;;;;;;;26.15;47.76;100573.43;2855700;83;21045;-62
2021/08/09 11:09:37;;;;;;;0.75;0.65;;;;;;;26.20;47.44;100572.26;2848921;83;21010;-62
2021/08/09 11:13:50;;;;;;;1.15;0.50;;;;;;;26.40;49.40;100569.06;2850535;83;21061;-62
2021/08/09 11:17:55;;;;;;;2.60;0.82;;;;;;;26.56;47.09;100575.81;2855540;82;21033;-61
2021/08/09 11:22:00;;;;;;;3.33;0.95;;;;;;;26.58;45.97;100564.15;2828352;84;21065;-61
2021/08/09 11:26:02;;;;;;;1.85;0.85;;;;;;;26.50;47.74;100573.45;2890058;81;21468;-61
2021/08/09 11:30:07;;;;;;;1.17;0.68;;;;;;;26.64;47.76;100570.91;2854602;83;20999;-62
2021/08/09 11:34:09;;;;;;;2.37;0.50;;;;;;;26.41;46.26;100570.18;2850951;83;21029;-63
2021/08/09 11:38:17;;;;;;;1.10;0.50;;;;;;;26.07;47.18;100574.54;2854081;82;20973;-63
2021/08/09 11:42:19;;;;;;;1.47;0.23;;;;;;;26.08;46.61;100572.13;2837338;83;21017;-63
2021/08/09 11:46:20;;;;;;;1.02;0.57;;;;;;;26.32;47.30;100561.45;2828396;84;21006;-62
2021/08/09 11:50:23;;;;;;;5.80;0.72;;;;;;;26.52;46.00;100557.70;2865031;83;20990;-62
2021/08/09 11:54:39;;;;;;;5.08;1.00;;;;;;;26.63;47.32;100558.33;2877021;83;20998;-63
2021/08/09 11:58:46;;;;;;;78.05;12.00;;;;;;;26.76;46.85;100542.88;2868979;83;21068;-62
2021/08/09 12:03:21;;;;;;;2.30;0.90;;;;;;;26.86;46.54;100544.56;2845093;83;21262;-61
2021/08/09 12:07:21;;;;;;;10.28;2.95;;;;;;;27.06;47.61;100545.69;2849061;83;21021;-63
2021/08/09 12:11:31;;;;;;;0.60;0.33;;;;;;;27.32;45.83;100545.58;2841831;83;20977;-63
2021/08/09 12:15:33;;;;;;;5.92;1.27;;;;;;;27.35;44.91;100537.73;2856550;83;20927;-62
2021/08/09 12:24:22;;;;;;;1.50;0.72;;;;;;;27.30;45.41;100529.92;2877751;81;21036;-63
2021/08/09 12:28:54;;;;;;;3.70;0.42;;;;;;;27.18;44.48;100531.25;2884704;81;21018;-63
2021/08/09 12:33:04;;;;;;;1.75;0.65;;;;;;;27.33;44.50;100526.21;2867974;82;21014;-62
2021/08/09 12:37:36;;;;;;;1.67;0.50;;;;;;;27.20;44.68;100534.06;2877578;82;21017;-63
2021/08/09 12:41:38;;;;;;;0.95;0.80;;;;;;;27.25;45.66;100526.55;2871617;83;21298;-62
2021/08/09 12:45:42;;;;;;;1.32;0.60;;;;;;;27.53;44.61;100525.66;2873006;83;20997;-64
2021/08/09 12:50:20;;;;;;;4.25;0.70;;;;;;;27.41;44.74;100529.67;2862184;83;21005;-67
2021/08/09 12:54:22;;;;;;;0.75;0.75;;;;;;;27.27;45.18;100527.66;2862278;83;21039;-63
2021/08/09 12:58:58;;;;;;;1.85;0.98;;;;;;;27.04;45.54;100517.80;2802292;85;21036;-66
2021/08/09 13:02:59;;;;;;;1.10;0.47;;;;;;;26.89;45.45;100512.72;2802206;83;22180;-63
2021/08/09 13:07:38;;;;;;;2.52;0.93;;;;;;;26.91;45.98;100517.41;2872728;83;21026;-64
2021/08/09 13:11:40;;;;;;;2.20;0.88;;;;;;;27.14;47.28;100511.79;2802175;85;21075;-63
2021/08/09 13:15:42;;;;;;;1.12;0.53;;;;;;;27.44;46.33;100504.09;2802003;85;21008;-65
2021/08/09 13:19:49;;;;;;;1.30;0.40;;;;;;;27.70;45.95;100498.49;2871849;83;20955;-65
2021/08/09 13:23:51;;;;;;;4.30;0.68;;;;;;;27.82;46.25;100497.98;2820968;83;21000;-63
2021/08/09 13:27:55;;;;;;;2.67;0.90;;;;;;;28.08;45.91;100499.95;2769778;85;21003;-61
2021/08/09 13:31:57;;;;;;;0.70;0.57;;;;;;;28.22;44.02;100496.47;2801860;85;21004;-64
2021/08/09 13:36:01;;;;;;;4.62;0.40;;;;;;;28.08;44.23;100491.20;2801480;85;21027;-62
2021/08/09 13:40:17;;;;;;;4.85;0.95;;;;;;;27.87;43.69;100489.05;2801582;85;21500;-62
2021/08/09 13:44:19;;;;;;;3.22;0.47;;;;;;;27.98;44.27;100484.14;2782235;85;21056;-64
2021/08/09 13:48:30;;;;;;;3.17;0.33;;;;;;;28.22;43.75;100489.11;2779282;85;21056;-63
2021/08/09 13:52:32;;;;;;;1.85;0.60;;;;;;;28.49;42.85;100478.16;2757748;85;21067;-63
2021/08/09 13:56:36;;;;;;;4.45;0.50;;;;;;;28.76;44.44;100481.75;2781886;85;20968;-60
2021/08/09 14:00:37;;;;;;;5.35;1.70;;;;;;;29.02;42.50;100487.75;2781024;85;20996;-61
2021/08/09 14:04:39;;;;;;;2.72;1.00;;;;;;;28.79;41.35;100484.00;2755809;86;21027;-62
2021/08/09 14:08:56;;;;;;;1.57;0.23;;;;;;;28.68;42.25;100485.69;2761695;85;21043;-61
2021/08/09 14:12:58;;;;;;;1.98;0.55;;;;;;;28.70;42.21;100479.99;2779502;85;21067;-62
2021/08/09 14:17:14;;;;;;;0.30;0.30;;;;;;;28.79;43.38;100479.89;2778625;84;21033;-62
2021/08/09 14:21:16;;;;;;;3.22;0.47;;;;;;;28.98;43.90;100481.11;2790240;85;21028;-61
2021/08/09 14:25:18;;;;;;;2.47;0.70;;;;;;;28.83;41.70;100440.03;2805792;84;21016;-61
2021/08/09 14:29:21;;;;;;;1.57;0.70;;;;;;;28.88;41.98;100471.60;2766103;85;21024;-61
2021/08/09 14:33:22;;;;;;;1.27;0.45;;;;;;;28.20;41.63;100476.73;2749309;86;21043;-61
2021/08/09 14:37:31;;;;;;;1.55;0.72;;;;;;;28.20;41.63;100476.73;2749507;86;21020;-60
2021/08/09 14:41:33;;;;;;;37.13;3.67;;;;;;;27.82;41.83;100473.91;2748936;86;21056;-60
2021/08/09 14:45:35;;;;;;;4.37;0.55;;;;;;;27.62;42.26;100445.02;2750010;84;21031;-61
2021/08/09 14:49:39;;;;;;;1.75;0.70;;;;;;;27.54;42.65;100466.69;2773570;85;20976;-60
2021/08/09 14:53:40;;;;;;;0.37;0.23;;;;;;;27.49;43.40;100468.72;2792672;84;20979;-59
2021/08/09 14:57:42;;;;;;;7.85;1.65;;;;;;;27.54;44.95;100463.14;2761228;85;21004;-60
2021/08/09 15:01:45;;;;;;;2.40;0.70;;;;;;;27.77;44.03;100460.42;2762280;85;20985;-60
2021/08/09 15:05:48;;;;;;;9.53;1.65;;;;;;;28.03;42.40;100458.28;2794867;85;21031;-59
2021/08/09 15:09:52;;;;;;;36.05;4.67;;;;;;;27.91;42.93;100465.13;2773619;85;21079;-60
2021/08/09 15:13:55;;;;;;;26.70;3.62;;;;;;;27.75;43.41;100460.35;2748393;86;21147;-59
2021/08/09 15:17:57;;;;;;;0.40;0.30;;;;;;;27.84;43.26;100456.73;2766615;85;21004;-59
2021/08/09 15:21:59;;;;;;;4.03;0.70;;;;;;;27.99;43.51;100447.53;2801869;84;21069;-59
2021/08/09 15:26:01;;;;;;;60.63;10.90;;;;;;;27.78;43.47;100439.38;2794464;84;21034;-60
2021/08/09 15:30:05;;;;;;;34.58;2.98;;;;;;;27.78;43.47;100439.38;2792756;85;21014;-59
2021/08/09 15:34:07;;;;;;;9.77;1.60;;;;;;;27.72;43.38;100448.02;2788833;85;21025;-59
2021/08/09 15:38:15;;;;;;;7.40;1.07;;;;;;;27.59;44.03;100449.59;2748908;86;21005;-59
2021/08/09 15:42:17;;;;;;;13.40;1.82;;;;;;;27.63;45.31;100446.69;2757845;85;21062;-59
2021/08/09 15:46:22;;;;;;;43.50;5.58;;;;;;;27.69;43.93;100438.90;2782154;85;21029;-60
2021/08/09 15:50:23;;;;;;;4.33;0.82;;;;;;;27.75;43.16;100437.13;2761165;85;21009;-60
2021/08/09 15:54:25;;;;;;;3.37;1.10;;;;;;;27.83;43.08;100439.53;2782559;84;21013;-59
2021/08/09 15:58:33;;;;;;;3.50;0.93;;;;;;;27.93;43.11;100428.81;2788666;85;21009;-59
2021/08/09 16:02:36;;;;;;;2.45;0.70;;;;;;;28.03;43.52;100424.66;2770994;85;20978;-58
2021/08/09 16:06:56;;;;;;;6.62;2.05;;;;;;;28.06;43.03;100424.18;2752252;85;21096;-58
2021/08/09 16:10:58;;;;;;;29.37;2.58;;;;;;;28.04;43.77;100428.50;2753473;84;21018;-59
2021/08/09 16:15:00;;;;;;;6.17;1.75;;;;;;;28.02;42.55;100418.34;2775950;84;20996;-59
2021/08/09 16:19:12;;;;;;;4.05;1.20;;;;;;;27.98;43.51;100413.07;2841906;83;21066;-59
2021/08/09 16:23:14;;;;;;;9.68;1.80;;;;;;;27.91;44.31;100416.47;2846937;83;21031;-60
2021/08/09 16:27:27;;;;;;;12.30;2.50;;;;;;;27.72;43.79;100424.80;2805354;85;21134;-59
2021/08/09 16:31:28;;;;;;;8.60;1.45;;;;;;;27.48;44.15;100424.72;2858614;82;21011;-59
2021/08/09 16:35:30;;;;;;;2.50;0.88;;;;;;;27.35;45.00;100431.23;2805430;85;21051;-59
2021/08/09 16:39:31;;;;;;;4.15;1.15;;;;;;;27.24;44.51;100426.59;2805136;84;21010;-61
2021/08/09 16:43:35;;;;;;;14.68;2.17;;;;;;;27.17;45.16;100437.61;2838074;83;30112;-58
2021/08/09 16:47:38;;;;;;;74.25;10.45;;;;;;;27.10;44.96;100432.76;2805309;85;21036;-58
2021/08/09 16:51:40;;;;;;;69.75;9.75;;;;;;;27.03;45.54;100423.33;2858881;83;21042;-59
2021/08/09 16:55:41;;;;;;;14.35;2.95;;;;;;;26.98;45.32;100425.08;2858762;83;21050;-60
2021/08/09 17:00:00;;;;;;;9.93;2.52;;;;;;;26.88;45.56;100431.91;2858909;83;20990;-59
2021/08/09 17:04:02;;;;;;;3.33;1.00;;;;;;;26.84;46.44;100432.05;2796659;83;21028;-60
2021/08/09 17:08:07;;;;;;;4.83;1.87;;;;;;;26.80;46.29;100426.76;2768051;84;21035;-62
2021/08/09 17:12:10;;;;;;;;;;;;;;;26.74;46.74;100424.96;2756381;86;21109;-60
2021/08/09 17:16:13;;;;;;;13.98;1.62;;;;;;;26.63;47.18;100424.66;2755960;85;20170;-60
2021/08/09 17:20:22;;;;;;;2.98;1.35;;;;;;;26.48;47.34;100426.43;2786195;85;21032;-60
2021/08/09 17:24:23;;;;;;;0.98;0.80;;;;;;;26.36;47.13;100431.81;2791932;83;21021;-60
2021/08/09 17:28:25;;;;;;;4.00;1.20;;;;;;;26.26;47.14;100432.86;2820525;84;21022;-62
2021/08/09 17:32:27;;;;;;;4.40;1.00;;;;;;;26.19;47.82;100431.56;2829779;83;20975;-63
2021/08/09 17:36:31;;;;;;;2.45;1.10;;;;;;;26.11;47.85;100426.39;2829974;84;20995;-61
2021/08/09 17:40:32;;;;;;;4.65;0.72;;;;;;;26.03;48.03;100420.70;2826009;82;21038;-62
2021/08/09 17:44:36;;;;;;;1.80;1.32;;;;;;;25.98;48.24;100421.07;2807879;82;21051;-62
2021/08/09 17:48:40;;;;;;;3.20;0.55;;;;;;;25.91;49.39;100429.30;2801249;82;20999;-63
2021/08/09 17:52:41;;;;;;;4.90;1.63;;;;;;;25.74;48.55;100432.59;2830129;84;21170;-64
2021/08/09 17:56:44;;;;;;;7.65;1.65;;;;;;;25.60;48.67;100433.25;2800573;84;20998;-63
2021/08/09 18:00:48;;;;;;;11.33;2.08;;;;;;;25.46;48.65;100431.67;2797266;84;20999;-63
2021/08/09 18:04:49;;;;;;;25.32;4.78;;;;;;;25.33;50.55;100429.35;2829801;84;21062;-64
2021/08/09 18:08:59;;;;;;;13.65;3.72;;;;;;;25.14;52.55;100432.50;2817215;82;21019;-65
2021/08/09 18:13:01;;;;;;;14.07;3.50;;;;;;;24.95;53.27;100433.76;2809039;82;21109;-63
2021/08/09 18:17:09;;;;;;;8.10;2.25;;;;;;;24.80;52.79;100429.16;2804116;82;21018;-63
2021/08/09 18:21:11;;;;;;;7.80;3.17;;;;;;;24.57;53.12;100435.92;2793484;84;21058;-63
2021/08/09 18:25:13;;;;;;;32.45;4.00;;;;;;;24.37;53.35;100443.63;2782343;82;21070;-63
2021/08/09 18:29:17;;;;;;;52.67;11.10;;;;;;;24.20;53.13;100447.31;2742659;86;21372;-67
2021/08/09 18:33:20;;;;;;;40.75;9.98;;;;;;;24.05;54.71;100452.98;2773038;85;21042;-65
2021/08/09 18:37:23;;;;;;;19.12;5.00;;;;;;;23.80;56.53;100459.55;2771209;86;21075;-65
2021/08/09 18:41:27;;;;;;;29.95;4.53;;;;;;;23.65;56.41;100459.77;2745280;84;20971;-64
2021/08/09 18:45:28;;;;;;;73.40;11.83;;;;;;;23.50;56.12;100467.59;2753899;84;21022;-64
2021/08/09 18:49:33;;;;;;;74.07;11.80;;;;;;;23.25;59.20;100477.67;2744415;86;21048;-64
2021/08/09 18:53:35;;;;;;;40.52;9.53;;;;;;;22.96;59.31;100482.88;2736438;85;21005;-63
2021/08/09 18:57:40;;;;;;;52.15;7.55;;;;;;;22.73;58.81;100484.05;2791281;84;21014;-63
2021/08/09 19:01:41;;;;;;;46.93;13.00;;;;;;;22.57;60.63;100487.91;2768064;84;21022;-62
2021/08/09 19:05:48;;;;;;;37.93;10.13;;;;;;;22.29;61.59;100485.21;2717099;86;21037;-61